sensor_id;sensor_type;location;lat;lon;timestamp;P1;durP1;ratioP1;P2;durP2;ratioP2
1380;SDS011;684;48.342;10.096;2023-11-19T00:02:25;6.47;;;3.63;;
1380;SDS011;684;48.342;10.096;2023-11-19T00:04:51;4.90;;;2.83;;
1380;SDS011;684;48.342;10.096;2023-11-19T00:07:20;4.93;;;2.67;;
1380;SDS011;684;48.342;10.096;2023-11-19T00:09:47;5.80;;;2.80;;
1380;SDS011;684;48.342;10.096;2023-11-19T00:12:14;7.20;;;3.10;;
1380;SDS011;684;48.342;10.096;2023-11-19T00:14:41;5.90;;;3.00;;
1380;SDS011;684;48.342;10.096;2023-11-19T00:17:09;5.47;;;2.50;;
1380;SDS011;684;48.342;10.096;2023-11-19T00:19:36;4.90;;;2.57;;
1380;SDS011;684;48.342;10.096;2023-11-19T00:22:02;7.00;;;3.37;;
1380;SDS011;684;48.342;10.096;2023-11-19T00:24:31;6.40;;;2.80;;
1380;SDS011;684;48.342;10.096;2023-11-19T00:26:57;5.43;;;2.80;;
1380;SDS011;684;48.342;10.096;2023-11-19T00:29:24;6.10;;;2.63;;
1380;SDS011;684;48.342;10.096;2023-11-19T00:31:51;5.20;;;2.83;;
1380;SDS011;684;48.342;10.096;2023-11-19T00:34:18;5.07;;;2.60;;
1380;SDS011;684;48.342;10.096;2023-11-19T00:36:47;5.70;;;3.00;;
1380;SDS011;684;48.342;10.096;2023-11-19T00:39:14;4.30;;;2.70;;
1380;SDS011;684;48.342;10.096;2023-11-19T00:41:42;5.97;;;3.00;;
1380;SDS011;684;48.342;10.096;2023-11-19T00:44:11;5.00;;;2.80;;
1380;SDS011;684;48.342;10.096;2023-11-19T00:46:37;8.30;;;2.80;;
1380;SDS011;684;48.342;10.096;2023-11-19T00:49:04;6.00;;;3.17;;
1380;SDS011;684;48.342;10.096;2023-11-19T00:51:31;5.70;;;3.00;;
1380;SDS011;684;48.342;10.096;2023-11-19T00:53:58;6.20;;;3.30;;
1380;SDS011;684;48.342;10.096;2023-11-19T00:56:26;6.00;;;3.30;;
1380;SDS011;684;48.342;10.096;2023-11-19T00:58:54;5.67;;;3.10;;
1380;SDS011;684;48.342;10.096;2023-11-19T01:01:22;6.33;;;3.40;;
1380;SDS011;684;48.342;10.096;2023-11-19T01:03:49;6.03;;;2.50;;
1380;SDS011;684;48.342;10.096;2023-11-19T01:06:25;5.70;;;3.20;;
1380;SDS011;684;48.342;10.096;2023-11-19T01:08:53;7.10;;;3.60;;
1380;SDS011;684;48.342;10.096;2023-11-19T01:11:20;5.47;;;3.40;;
1380;SDS011;684;48.342;10.096;2023-11-19T01:13:47;4.83;;;2.70;;
1380;SDS011;684;48.342;10.096;2023-11-19T01:16:15;5.87;;;3.20;;
1380;SDS011;684;48.342;10.096;2023-11-19T01:18:42;5.00;;;3.07;;
1380;SDS011;684;48.342;10.096;2023-11-19T01:21:09;5.90;;;3.10;;
1380;SDS011;684;48.342;10.096;2023-11-19T01:23:36;6.60;;;3.37;;
1380;SDS011;684;48.342;10.096;2023-11-19T01:26:03;6.00;;;2.93;;
1380;SDS011;684;48.342;10.096;2023-11-19T01:28:31;6.00;;;3.40;;
1380;SDS011;684;48.342;10.096;2023-11-19T01:30:57;6.13;;;3.50;;
1380;SDS011;684;48.342;10.096;2023-11-19T01:33:25;6.00;;;3.57;;
1380;SDS011;684;48.342;10.096;2023-11-19T01:35:52;5.27;;;2.87;;
1380;SDS011;684;48.342;10.096;2023-11-19T01:38:19;5.03;;;3.33;;
1380;SDS011;684;48.342;10.096;2023-11-19T01:40:46;5.17;;;3.10;;
1380;SDS011;684;48.342;10.096;2023-11-19T01:45:58;5.40;;;3.13;;
1380;SDS011;684;48.342;10.096;2023-11-19T01:48:26;5.50;;;3.07;;
1380;SDS011;684;48.342;10.096;2023-11-19T01:50:53;10.23;;;4.07;;
1380;SDS011;684;48.342;10.096;2023-11-19T01:53:21;5.17;;;3.40;;
1380;SDS011;684;48.342;10.096;2023-11-19T01:55:48;5.43;;;3.57;;
1380;SDS011;684;48.342;10.096;2023-11-19T01:58:15;6.80;;;3.83;;
1380;SDS011;684;48.342;10.096;2023-11-19T02:00:43;5.67;;;3.40;;
1380;SDS011;684;48.342;10.096;2023-11-19T02:03:11;8.63;;;4.70;;
1380;SDS011;684;48.342;10.096;2023-11-19T02:05:40;6.30;;;4.30;;
1380;SDS011;684;48.342;10.096;2023-11-19T02:08:07;5.80;;;3.60;;
1380;SDS011;684;48.342;10.096;2023-11-19T02:10:35;6.80;;;4.33;;
1380;SDS011;684;48.342;10.096;2023-11-19T02:13:01;6.10;;;3.83;;
1380;SDS011;684;48.342;10.096;2023-11-19T02:15:30;6.50;;;4.23;;
1380;SDS011;684;48.342;10.096;2023-11-19T02:17:57;6.07;;;3.23;;
1380;SDS011;684;48.342;10.096;2023-11-19T02:20:44;7.00;;;4.10;;
1380;SDS011;684;48.342;10.096;2023-11-19T02:23:11;6.30;;;4.10;;
1380;SDS011;684;48.342;10.096;2023-11-19T02:25:39;7.03;;;3.83;;
1380;SDS011;684;48.342;10.096;2023-11-19T02:28:08;5.33;;;3.60;;
1380;SDS011;684;48.342;10.096;2023-11-19T02:30:37;6.40;;;3.63;;
1380;SDS011;684;48.342;10.096;2023-11-19T02:33:04;6.33;;;3.83;;
1380;SDS011;684;48.342;10.096;2023-11-19T02:35:31;6.73;;;4.00;;
1380;SDS011;684;48.342;10.096;2023-11-19T02:37:59;8.40;;;4.27;;
1380;SDS011;684;48.342;10.096;2023-11-19T02:40:28;7.10;;;4.03;;
1380;SDS011;684;48.342;10.096;2023-11-19T02:42:55;6.10;;;4.10;;
1380;SDS011;684;48.342;10.096;2023-11-19T02:45:24;5.43;;;3.57;;
1380;SDS011;684;48.342;10.096;2023-11-19T02:47:52;6.60;;;4.37;;
1380;SDS011;684;48.342;10.096;2023-11-19T02:50:20;6.23;;;4.07;;
1380;SDS011;684;48.342;10.096;2023-11-19T02:52:50;5.80;;;3.80;;
1380;SDS011;684;48.342;10.096;2023-11-19T02:55:18;5.30;;;3.40;;
1380;SDS011;684;48.342;10.096;2023-11-19T02:57:45;5.80;;;3.57;;
1380;SDS011;684;48.342;10.096;2023-11-19T03:00:14;6.00;;;4.27;;
1380;SDS011;684;48.342;10.096;2023-11-19T03:02:43;6.20;;;4.00;;
1380;SDS011;684;48.342;10.096;2023-11-19T03:05:11;6.43;;;3.70;;
1380;SDS011;684;48.342;10.096;2023-11-19T03:07:40;5.50;;;2.87;;
1380;SDS011;684;48.342;10.096;2023-11-19T03:10:09;6.83;;;3.73;;
1380;SDS011;684;48.342;10.096;2023-11-19T03:12:38;6.10;;;3.40;;
1380;SDS011;684;48.342;10.096;2023-11-19T03:15:06;8.03;;;3.73;;
1380;SDS011;684;48.342;10.096;2023-11-19T03:17:34;8.13;;;3.50;;
1380;SDS011;684;48.342;10.096;2023-11-19T03:20:03;6.30;;;4.10;;
1380;SDS011;684;48.342;10.096;2023-11-19T03:22:32;6.60;;;3.83;;
1380;SDS011;684;48.342;10.096;2023-11-19T03:24:59;6.23;;;3.60;;
1380;SDS011;684;48.342;10.096;2023-11-19T03:27:26;7.10;;;3.90;;
1380;SDS011;684;48.342;10.096;2023-11-19T03:29:53;6.27;;;3.77;;
1380;SDS011;684;48.342;10.096;2023-11-19T03:32:20;5.80;;;3.50;;
1380;SDS011;684;48.342;10.096;2023-11-19T03:34:46;6.50;;;4.00;;
1380;SDS011;684;48.342;10.096;2023-11-19T03:37:14;6.23;;;3.97;;
1380;SDS011;684;48.342;10.096;2023-11-19T03:39:42;6.73;;;4.10;;
1380;SDS011;684;48.342;10.096;2023-11-19T03:42:09;6.13;;;3.40;;
1380;SDS011;684;48.342;10.096;2023-11-19T03:44:38;7.00;;;4.00;;
1380;SDS011;684;48.342;10.096;2023-11-19T03:47:05;6.30;;;3.60;;
1380;SDS011;684;48.342;10.096;2023-11-19T03:49:31;5.30;;;3.37;;
1380;SDS011;684;48.342;10.096;2023-11-19T03:51:58;5.90;;;3.90;;
1380;SDS011;684;48.342;10.096;2023-11-19T03:54:27;5.80;;;4.10;;
1380;SDS011;684;48.342;10.096;2023-11-19T03:56:54;6.50;;;4.27;;
1380;SDS011;684;48.342;10.096;2023-11-19T03:59:21;6.17;;;3.60;;
1380;SDS011;684;48.342;10.096;2023-11-19T04:01:47;6.33;;;3.90;;
1380;SDS011;684;48.342;10.096;2023-11-19T04:04:14;6.60;;;3.80;;
1380;SDS011;684;48.342;10.096;2023-11-19T04:06:41;6.90;;;4.20;;
1380;SDS011;684;48.342;10.096;2023-11-19T04:09:07;6.17;;;3.83;;
1380;SDS011;684;48.342;10.096;2023-11-19T04:11:36;6.63;;;3.93;;
1380;SDS011;684;48.342;10.096;2023-11-19T04:14:05;6.97;;;3.80;;
1380;SDS011;684;48.342;10.096;2023-11-19T04:16:31;6.73;;;3.83;;
1380;SDS011;684;48.342;10.096;2023-11-19T04:18:58;6.50;;;3.67;;
1380;SDS011;684;48.342;10.096;2023-11-19T04:21:25;5.97;;;3.70;;
1380;SDS011;684;48.342;10.096;2023-11-19T04:23:52;7.13;;;3.93;;
1380;SDS011;684;48.342;10.096;2023-11-19T04:26:18;6.23;;;3.63;;
1380;SDS011;684;48.342;10.096;2023-11-19T04:28:47;7.60;;;4.73;;
1380;SDS011;684;48.342;10.096;2023-11-19T04:31:14;6.40;;;4.07;;
1380;SDS011;684;48.342;10.096;2023-11-19T04:33:41;6.17;;;3.87;;
1380;SDS011;684;48.342;10.096;2023-11-19T04:36:08;6.87;;;4.20;;
1380;SDS011;684;48.342;10.096;2023-11-19T04:38:36;7.10;;;3.93;;
1380;SDS011;684;48.342;10.096;2023-11-19T04:41:03;6.67;;;4.23;;
1380;SDS011;684;48.342;10.096;2023-11-19T04:43:31;6.93;;;4.53;;
1380;SDS011;684;48.342;10.096;2023-11-19T04:45:59;6.60;;;4.60;;
1380;SDS011;684;48.342;10.096;2023-11-19T04:48:26;6.77;;;4.37;;
1380;SDS011;684;48.342;10.096;2023-11-19T04:50:53;7.23;;;4.17;;
1380;SDS011;684;48.342;10.096;2023-11-19T04:53:20;8.67;;;3.90;;
1380;SDS011;684;48.342;10.096;2023-11-19T04:55:46;7.80;;;5.23;;
1380;SDS011;684;48.342;10.096;2023-11-19T04:58:13;7.70;;;3.90;;
1380;SDS011;684;48.342;10.096;2023-11-19T05:00:40;6.20;;;3.50;;
1380;SDS011;684;48.342;10.096;2023-11-19T05:03:08;6.47;;;4.00;;
1380;SDS011;684;48.342;10.096;2023-11-19T05:05:35;8.70;;;4.23;;
1380;SDS011;684;48.342;10.096;2023-11-19T05:08:02;9.17;;;4.50;;
1380;SDS011;684;48.342;10.096;2023-11-19T05:10:28;5.93;;;3.70;;
1380;SDS011;684;48.342;10.096;2023-11-19T05:12:55;5.80;;;3.70;;
1380;SDS011;684;48.342;10.096;2023-11-19T05:15:22;6.00;;;3.73;;
1380;SDS011;684;48.342;10.096;2023-11-19T05:17:49;6.57;;;4.13;;
1380;SDS011;684;48.342;10.096;2023-11-19T05:20:17;6.80;;;4.10;;
1380;SDS011;684;48.342;10.096;2023-11-19T05:22:44;8.10;;;4.33;;
1380;SDS011;684;48.342;10.096;2023-11-19T05:25:11;7.90;;;4.30;;
1380;SDS011;684;48.342;10.096;2023-11-19T05:27:37;6.17;;;3.83;;
1380;SDS011;684;48.342;10.096;2023-11-19T05:30:05;6.70;;;3.83;;
1380;SDS011;684;48.342;10.096;2023-11-19T05:32:35;5.57;;;3.70;;
1380;SDS011;684;48.342;10.096;2023-11-19T05:35:02;6.67;;;4.60;;
1380;SDS011;684;48.342;10.096;2023-11-19T05:37:31;5.40;;;3.23;;
1380;SDS011;684;48.342;10.096;2023-11-19T05:39:59;7.03;;;3.80;;
1380;SDS011;684;48.342;10.096;2023-11-19T05:42:28;7.47;;;3.70;;
1380;SDS011;684;48.342;10.096;2023-11-19T05:44:55;6.43;;;4.17;;
1380;SDS011;684;48.342;10.096;2023-11-19T05:47:22;6.10;;;4.07;;
1380;SDS011;684;48.342;10.096;2023-11-19T05:49:49;5.53;;;3.57;;
1380;SDS011;684;48.342;10.096;2023-11-19T05:52:16;6.87;;;4.17;;
1380;SDS011;684;48.342;10.096;2023-11-19T05:54:44;6.17;;;3.77;;
1380;SDS011;684;48.342;10.096;2023-11-19T05:57:13;8.80;;;5.40;;
1380;SDS011;684;48.342;10.096;2023-11-19T05:59:43;6.90;;;4.27;;
1380;SDS011;684;48.342;10.096;2023-11-19T06:02:11;5.63;;;3.73;;
1380;SDS011;684;48.342;10.096;2023-11-19T06:04:38;7.00;;;4.50;;
1380;SDS011;684;48.342;10.096;2023-11-19T06:07:06;7.07;;;4.40;;
1380;SDS011;684;48.342;10.096;2023-11-19T06:09:33;6.50;;;4.13;;
1380;SDS011;684;48.342;10.096;2023-11-19T06:12:01;6.70;;;4.17;;
1380;SDS011;684;48.342;10.096;2023-11-19T06:14:29;7.30;;;4.80;;
1380;SDS011;684;48.342;10.096;2023-11-19T06:16:55;5.53;;;3.60;;
1380;SDS011;684;48.342;10.096;2023-11-19T06:19:22;7.80;;;4.23;;
1380;SDS011;684;48.342;10.096;2023-11-19T06:21:49;6.40;;;4.27;;
1380;SDS011;684;48.342;10.096;2023-11-19T06:24:16;6.30;;;4.23;;
1380;SDS011;684;48.342;10.096;2023-11-19T06:26:43;8.00;;;4.40;;
1380;SDS011;684;48.342;10.096;2023-11-19T06:29:11;6.53;;;4.30;;
1380;SDS011;684;48.342;10.096;2023-11-19T06:31:43;7.90;;;4.50;;
1380;SDS011;684;48.342;10.096;2023-11-19T06:34:10;6.90;;;4.40;;
1380;SDS011;684;48.342;10.096;2023-11-19T06:36:37;7.30;;;4.20;;
1380;SDS011;684;48.342;10.096;2023-11-19T06:39:03;7.53;;;4.40;;
1380;SDS011;684;48.342;10.096;2023-11-19T06:41:31;7.07;;;4.60;;
1380;SDS011;684;48.342;10.096;2023-11-19T06:43:57;7.50;;;3.80;;
1380;SDS011;684;48.342;10.096;2023-11-19T06:46:26;7.10;;;3.90;;
1380;SDS011;684;48.342;10.096;2023-11-19T06:48:53;6.53;;;3.30;;
1380;SDS011;684;48.342;10.096;2023-11-19T06:51:22;6.80;;;4.23;;
1380;SDS011;684;48.342;10.096;2023-11-19T06:53:49;5.50;;;3.53;;
1380;SDS011;684;48.342;10.096;2023-11-19T06:56:19;6.07;;;4.10;;
1380;SDS011;684;48.342;10.096;2023-11-19T06:58:47;6.70;;;5.03;;
1380;SDS011;684;48.342;10.096;2023-11-19T07:01:14;6.97;;;4.23;;
1380;SDS011;684;48.342;10.096;2023-11-19T07:03:42;6.47;;;4.43;;
1380;SDS011;684;48.342;10.096;2023-11-19T07:06:10;6.60;;;3.60;;
1380;SDS011;684;48.342;10.096;2023-11-19T07:08:38;6.80;;;3.50;;
1380;SDS011;684;48.342;10.096;2023-11-19T07:11:04;4.93;;;3.27;;
1380;SDS011;684;48.342;10.096;2023-11-19T07:13:31;6.80;;;3.90;;
1380;SDS011;684;48.342;10.096;2023-11-19T07:15:58;6.57;;;4.00;;
1380;SDS011;684;48.342;10.096;2023-11-19T07:18:25;9.73;;;5.67;;
1380;SDS011;684;48.342;10.096;2023-11-19T07:20:53;14.70;;;9.63;;
1380;SDS011;684;48.342;10.096;2023-11-19T07:23:20;10.30;;;7.67;;
1380;SDS011;684;48.342;10.096;2023-11-19T07:25:47;7.17;;;4.90;;
1380;SDS011;684;48.342;10.096;2023-11-19T07:28:15;7.50;;;5.23;;
1380;SDS011;684;48.342;10.096;2023-11-19T07:30:42;6.27;;;4.13;;
1380;SDS011;684;48.342;10.096;2023-11-19T07:33:09;6.87;;;4.10;;
1380;SDS011;684;48.342;10.096;2023-11-19T07:35:36;5.80;;;3.10;;
1380;SDS011;684;48.342;10.096;2023-11-19T07:38:06;5.53;;;3.00;;
1380;SDS011;684;48.342;10.096;2023-11-19T07:40:32;5.70;;;3.20;;
1380;SDS011;684;48.342;10.096;2023-11-19T07:42:59;6.70;;;3.10;;
1380;SDS011;684;48.342;10.096;2023-11-19T07:45:26;5.10;;;3.10;;
1380;SDS011;684;48.342;10.096;2023-11-19T07:47:53;5.70;;;2.87;;
1380;SDS011;684;48.342;10.096;2023-11-19T07:50:20;4.70;;;2.27;;
1380;SDS011;684;48.342;10.096;2023-11-19T07:52:47;5.00;;;2.73;;
1380;SDS011;684;48.342;10.096;2023-11-19T07:55:15;4.60;;;2.50;;
1380;SDS011;684;48.342;10.096;2023-11-19T07:57:42;5.23;;;2.63;;
1380;SDS011;684;48.342;10.096;2023-11-19T08:00:09;5.20;;;2.37;;
1380;SDS011;684;48.342;10.096;2023-11-19T08:02:37;8.50;;;2.97;;
1380;SDS011;684;48.342;10.096;2023-11-19T08:05:04;5.00;;;2.70;;
1380;SDS011;684;48.342;10.096;2023-11-19T08:07:32;4.83;;;2.47;;
1380;SDS011;684;48.342;10.096;2023-11-19T08:09:58;4.90;;;2.47;;
1380;SDS011;684;48.342;10.096;2023-11-19T08:12:27;4.60;;;2.47;;
1380;SDS011;684;48.342;10.096;2023-11-19T08:14:54;4.60;;;2.37;;
1380;SDS011;684;48.342;10.096;2023-11-19T08:17:21;5.03;;;2.50;;
1380;SDS011;684;48.342;10.096;2023-11-19T08:19:48;5.00;;;2.83;;
1380;SDS011;684;48.342;10.096;2023-11-19T08:22:15;4.30;;;2.10;;
1380;SDS011;684;48.342;10.096;2023-11-19T08:24:42;5.47;;;2.93;;
1380;SDS011;684;48.342;10.096;2023-11-19T08:27:09;6.47;;;2.40;;
1380;SDS011;684;48.342;10.096;2023-11-19T08:29:37;5.10;;;3.00;;
1380;SDS011;684;48.342;10.096;2023-11-19T08:32:04;4.63;;;2.67;;
1380;SDS011;684;48.342;10.096;2023-11-19T08:34:32;4.37;;;2.40;;
1380;SDS011;684;48.342;10.096;2023-11-19T08:36:59;5.33;;;3.23;;
1380;SDS011;684;48.342;10.096;2023-11-19T08:39:26;5.47;;;2.40;;
1380;SDS011;684;48.342;10.096;2023-11-19T08:41:53;4.70;;;2.70;;
1380;SDS011;684;48.342;10.096;2023-11-19T08:44:20;5.10;;;2.93;;
1380;SDS011;684;48.342;10.096;2023-11-19T08:46:49;4.70;;;2.60;;
1380;SDS011;684;48.342;10.096;2023-11-19T08:49:16;5.37;;;3.23;;
1380;SDS011;684;48.342;10.096;2023-11-19T08:51:43;5.53;;;2.70;;
1380;SDS011;684;48.342;10.096;2023-11-19T08:54:10;5.50;;;3.30;;
1380;SDS011;684;48.342;10.096;2023-11-19T08:56:37;6.77;;;3.30;;
1380;SDS011;684;48.342;10.096;2023-11-19T08:59:04;5.90;;;3.10;;
1380;SDS011;684;48.342;10.096;2023-11-19T09:01:31;6.87;;;3.40;;
1380;SDS011;684;48.342;10.096;2023-11-19T09:03:59;5.17;;;2.80;;
1380;SDS011;684;48.342;10.096;2023-11-19T09:06:26;7.13;;;4.27;;
1380;SDS011;684;48.342;10.096;2023-11-19T09:08:53;6.10;;;3.70;;
1380;SDS011;684;48.342;10.096;2023-11-19T09:11:23;9.57;;;3.50;;
1380;SDS011;684;48.342;10.096;2023-11-19T09:13:50;5.47;;;3.27;;
1380;SDS011;684;48.342;10.096;2023-11-19T09:16:16;5.00;;;3.30;;
1380;SDS011;684;48.342;10.096;2023-11-19T09:18:43;4.00;;;1.90;;
1380;SDS011;684;48.342;10.096;2023-11-19T09:21:11;4.57;;;1.93;;
1380;SDS011;684;48.342;10.096;2023-11-19T09:23:38;5.93;;;1.80;;
1380;SDS011;684;48.342;10.096;2023-11-19T09:26:05;3.83;;;1.63;;
1380;SDS011;684;48.342;10.096;2023-11-19T09:28:35;4.10;;;1.90;;
1380;SDS011;684;48.342;10.096;2023-11-19T09:31:02;4.00;;;2.03;;
1380;SDS011;684;48.342;10.096;2023-11-19T09:33:29;6.53;;;1.93;;
1380;SDS011;684;48.342;10.096;2023-11-19T09:35:56;4.00;;;1.90;;
1380;SDS011;684;48.342;10.096;2023-11-19T09:38:25;3.80;;;1.90;;
1380;SDS011;684;48.342;10.096;2023-11-19T09:40:52;4.37;;;1.60;;
1380;SDS011;684;48.342;10.096;2023-11-19T09:43:19;3.47;;;1.40;;
1380;SDS011;684;48.342;10.096;2023-11-19T09:45:47;3.80;;;1.73;;
1380;SDS011;684;48.342;10.096;2023-11-19T09:48:16;5.10;;;3.20;;
1380;SDS011;684;48.342;10.096;2023-11-19T09:50:43;3.50;;;1.60;;
1380;SDS011;684;48.342;10.096;2023-11-19T09:53:11;3.60;;;1.40;;
1380;SDS011;684;48.342;10.096;2023-11-19T09:55:40;3.40;;;1.20;;
1380;SDS011;684;48.342;10.096;2023-11-19T09:58:07;3.00;;;0.93;;
1380;SDS011;684;48.342;10.096;2023-11-19T10:00:35;3.20;;;1.17;;
1380;SDS011;684;48.342;10.096;2023-11-19T10:03:03;3.63;;;1.70;;
1380;SDS011;684;48.342;10.096;2023-11-19T10:05:33;4.13;;;1.70;;
1380;SDS011;684;48.342;10.096;2023-11-19T10:08:01;4.33;;;1.47;;
1380;SDS011;684;48.342;10.096;2023-11-19T10:10:28;5.30;;;3.23;;
1380;SDS011;684;48.342;10.096;2023-11-19T10:12:56;6.93;;;3.70;;
1380;SDS011;684;48.342;10.096;2023-11-19T10:15:25;6.07;;;3.73;;
1380;SDS011;684;48.342;10.096;2023-11-19T10:17:55;7.50;;;5.60;;
1380;SDS011;684;48.342;10.096;2023-11-19T10:20:22;4.53;;;2.07;;
1380;SDS011;684;48.342;10.096;2023-11-19T10:22:52;4.27;;;2.30;;
1380;SDS011;684;48.342;10.096;2023-11-19T10:25:22;5.07;;;2.20;;
1380;SDS011;684;48.342;10.096;2023-11-19T10:27:50;4.50;;;2.10;;
1380;SDS011;684;48.342;10.096;2023-11-19T10:30:19;3.50;;;1.13;;
1380;SDS011;684;48.342;10.096;2023-11-19T10:32:54;4.63;;;1.57;;
1380;SDS011;684;48.342;10.096;2023-11-19T10:35:30;3.80;;;1.70;;
1380;SDS011;684;48.342;10.096;2023-11-19T10:37:58;3.00;;;0.90;;
1380;SDS011;684;48.342;10.096;2023-11-19T10:40:37;5.30;;;2.77;;
1380;SDS011;684;48.342;10.096;2023-11-19T10:43:05;4.00;;;1.50;;
1380;SDS011;684;48.342;10.096;2023-11-19T10:45:34;3.60;;;1.00;;
1380;SDS011;684;48.342;10.096;2023-11-19T10:48:02;4.13;;;1.40;;
1380;SDS011;684;48.342;10.096;2023-11-19T10:50:31;3.60;;;1.63;;
1380;SDS011;684;48.342;10.096;2023-11-19T10:52:59;3.30;;;0.80;;
1380;SDS011;684;48.342;10.096;2023-11-19T10:55:26;3.80;;;1.23;;
1380;SDS011;684;48.342;10.096;2023-11-19T10:57:56;4.67;;;1.43;;
1380;SDS011;684;48.342;10.096;2023-11-19T11:00:26;3.90;;;1.50;;
1380;SDS011;684;48.342;10.096;2023-11-19T11:03:00;3.70;;;1.40;;
1380;SDS011;684;48.342;10.096;2023-11-19T11:05:28;4.67;;;1.90;;
1380;SDS011;684;48.342;10.096;2023-11-19T11:07:58;4.40;;;2.00;;
1380;SDS011;684;48.342;10.096;2023-11-19T11:10:27;3.70;;;1.00;;
1380;SDS011;684;48.342;10.096;2023-11-19T11:12:58;3.17;;;0.93;;
1380;SDS011;684;48.342;10.096;2023-11-19T11:15:29;3.90;;;1.33;;
1380;SDS011;684;48.342;10.096;2023-11-19T11:17:59;3.53;;;1.30;;
1380;SDS011;684;48.342;10.096;2023-11-19T11:20:28;3.63;;;1.40;;
1380;SDS011;684;48.342;10.096;2023-11-19T11:22:59;4.27;;;1.47;;
1380;SDS011;684;48.342;10.096;2023-11-19T11:25:39;4.07;;;1.47;;
1380;SDS011;684;48.342;10.096;2023-11-19T11:28:18;3.77;;;1.23;;
1380;SDS011;684;48.342;10.096;2023-11-19T11:31:06;4.13;;;1.13;;
1380;SDS011;684;48.342;10.096;2023-11-19T11:33:48;2.90;;;0.77;;
1380;SDS011;684;48.342;10.096;2023-11-19T11:36:28;3.70;;;1.17;;
1380;SDS011;684;48.342;10.096;2023-11-19T11:38:57;3.30;;;1.10;;
1380;SDS011;684;48.342;10.096;2023-11-19T11:41:25;4.13;;;1.50;;
1380;SDS011;684;48.342;10.096;2023-11-19T11:43:53;3.57;;;1.37;;
1380;SDS011;684;48.342;10.096;2023-11-19T11:49:27;3.97;;;1.80;;
1380;SDS011;684;48.342;10.096;2023-11-19T11:52:02;5.37;;;1.50;;
1380;SDS011;684;48.342;10.096;2023-11-19T11:54:30;4.00;;;1.57;;
1380;SDS011;684;48.342;10.096;2023-11-19T11:57:00;3.90;;;1.60;;
1380;SDS011;684;48.342;10.096;2023-11-19T11:59:37;6.93;;;1.87;;
1380;SDS011;684;48.342;10.096;2023-11-19T12:02:09;5.27;;;2.43;;
1380;SDS011;684;48.342;10.096;2023-11-19T12:04:38;4.20;;;1.77;;
1380;SDS011;684;48.342;10.096;2023-11-19T12:07:06;4.03;;;1.50;;
1380;SDS011;684;48.342;10.096;2023-11-19T12:09:36;4.23;;;2.00;;
1380;SDS011;684;48.342;10.096;2023-11-19T12:12:13;9.03;;;5.80;;
1380;SDS011;684;48.342;10.096;2023-11-19T12:15:00;11.67;;;8.07;;
1380;SDS011;684;48.342;10.096;2023-11-19T12:17:37;6.73;;;3.20;;
1380;SDS011;684;48.342;10.096;2023-11-19T12:20:11;9.43;;;4.10;;
1380;SDS011;684;48.342;10.096;2023-11-19T12:22:38;10.33;;;6.07;;
1380;SDS011;684;48.342;10.096;2023-11-19T12:25:06;13.43;;;7.83;;
1380;SDS011;684;48.342;10.096;2023-11-19T12:27:33;9.43;;;4.93;;
1380;SDS011;684;48.342;10.096;2023-11-19T12:30:00;5.30;;;2.30;;
1380;SDS011;684;48.342;10.096;2023-11-19T12:32:36;3.77;;;1.23;;
1380;SDS011;684;48.342;10.096;2023-11-19T12:35:04;5.60;;;3.17;;
1380;SDS011;684;48.342;10.096;2023-11-19T12:37:33;4.40;;;2.13;;
1380;SDS011;684;48.342;10.096;2023-11-19T12:40:00;5.87;;;4.00;;
1380;SDS011;684;48.342;10.096;2023-11-19T12:42:36;6.00;;;3.47;;
1380;SDS011;684;48.342;10.096;2023-11-19T12:45:05;8.10;;;5.87;;
1380;SDS011;684;48.342;10.096;2023-11-19T12:47:33;7.70;;;5.20;;
1380;SDS011;684;48.342;10.096;2023-11-19T12:49:59;13.97;;;10.40;;
1380;SDS011;684;48.342;10.096;2023-11-19T12:52:27;10.63;;;7.63;;
1380;SDS011;684;48.342;10.096;2023-11-19T12:54:55;5.60;;;2.60;;
1380;SDS011;684;48.342;10.096;2023-11-19T12:57:35;5.40;;;3.00;;
1380;SDS011;684;48.342;10.096;2023-11-19T13:00:03;10.40;;;7.43;;
1380;SDS011;684;48.342;10.096;2023-11-19T13:05:23;4.07;;;1.87;;
1380;SDS011;684;48.342;10.096;2023-11-19T13:07:59;3.50;;;1.10;;
1380;SDS011;684;48.342;10.096;2023-11-19T13:10:29;5.13;;;1.73;;
1380;SDS011;684;48.342;10.096;2023-11-19T13:13:00;3.63;;;1.20;;
1380;SDS011;684;48.342;10.096;2023-11-19T13:15:28;3.43;;;0.93;;
1380;SDS011;684;48.342;10.096;2023-11-19T13:17:55;4.87;;;1.90;;
1380;SDS011;684;48.342;10.096;2023-11-19T13:20:22;6.20;;;1.73;;
1380;SDS011;684;48.342;10.096;2023-11-19T13:22:58;4.37;;;1.30;;
1380;SDS011;684;48.342;10.096;2023-11-19T13:25:26;3.40;;;1.00;;
1380;SDS011;684;48.342;10.096;2023-11-19T13:27:56;3.50;;;0.80;;
1380;SDS011;684;48.342;10.096;2023-11-19T13:30:23;3.00;;;0.67;;
1380;SDS011;684;48.342;10.096;2023-11-19T13:32:50;3.20;;;0.90;;
1380;SDS011;684;48.342;10.096;2023-11-19T13:35:19;3.00;;;0.63;;
1380;SDS011;684;48.342;10.096;2023-11-19T13:37:47;3.30;;;0.60;;
1380;SDS011;684;48.342;10.096;2023-11-19T13:40:14;3.27;;;0.80;;
1380;SDS011;684;48.342;10.096;2023-11-19T13:42:42;3.20;;;0.77;;
1380;SDS011;684;48.342;10.096;2023-11-19T13:45:09;3.63;;;0.93;;
1380;SDS011;684;48.342;10.096;2023-11-19T13:47:38;3.13;;;0.50;;
1380;SDS011;684;48.342;10.096;2023-11-19T13:50:07;4.40;;;0.87;;
1380;SDS011;684;48.342;10.096;2023-11-19T13:52:35;2.90;;;0.60;;
1380;SDS011;684;48.342;10.096;2023-11-19T13:55:04;3.53;;;0.87;;
1380;SDS011;684;48.342;10.096;2023-11-19T13:57:33;3.30;;;0.70;;
1380;SDS011;684;48.342;10.096;2023-11-19T14:00:01;2.80;;;0.50;;
1380;SDS011;684;48.342;10.096;2023-11-19T14:02:32;3.00;;;0.60;;
1380;SDS011;684;48.342;10.096;2023-11-19T14:04:59;3.43;;;1.20;;
1380;SDS011;684;48.342;10.096;2023-11-19T14:07:26;5.13;;;2.13;;
1380;SDS011;684;48.342;10.096;2023-11-19T14:09:52;3.10;;;0.70;;
1380;SDS011;684;48.342;10.096;2023-11-19T14:12:19;3.30;;;0.60;;
1380;SDS011;684;48.342;10.096;2023-11-19T14:14:47;3.60;;;0.80;;
1380;SDS011;684;48.342;10.096;2023-11-19T14:17:15;3.00;;;0.77;;
1380;SDS011;684;48.342;10.096;2023-11-19T14:19:42;3.00;;;0.63;;
1380;SDS011;684;48.342;10.096;2023-11-19T14:22:09;3.20;;;0.70;;
1380;SDS011;684;48.342;10.096;2023-11-19T14:24:36;3.37;;;0.77;;
1380;SDS011;684;48.342;10.096;2023-11-19T14:27:03;3.10;;;0.70;;
1380;SDS011;684;48.342;10.096;2023-11-19T14:29:30;3.10;;;0.60;;
1380;SDS011;684;48.342;10.096;2023-11-19T14:31:57;4.17;;;1.20;;
1380;SDS011;684;48.342;10.096;2023-11-19T14:34:25;2.87;;;0.60;;
1380;SDS011;684;48.342;10.096;2023-11-19T14:36:53;2.97;;;0.60;;
1380;SDS011;684;48.342;10.096;2023-11-19T14:39:19;2.90;;;0.60;;
1380;SDS011;684;48.342;10.096;2023-11-19T14:41:46;3.30;;;0.70;;
1380;SDS011;684;48.342;10.096;2023-11-19T14:44:14;3.70;;;0.80;;
1380;SDS011;684;48.342;10.096;2023-11-19T14:46:41;3.10;;;0.70;;
1380;SDS011;684;48.342;10.096;2023-11-19T14:49:08;3.70;;;0.77;;
1380;SDS011;684;48.342;10.096;2023-11-19T14:51:36;3.40;;;0.70;;
1380;SDS011;684;48.342;10.096;2023-11-19T14:54:03;6.40;;;0.83;;
1380;SDS011;684;48.342;10.096;2023-11-19T14:56:30;3.10;;;0.83;;
1380;SDS011;684;48.342;10.096;2023-11-19T14:58:57;5.53;;;2.80;;
1380;SDS011;684;48.342;10.096;2023-11-19T15:01:24;3.70;;;1.70;;
1380;SDS011;684;48.342;10.096;2023-11-19T15:03:53;4.13;;;1.57;;
1380;SDS011;684;48.342;10.096;2023-11-19T15:06:22;3.73;;;1.13;;
1380;SDS011;684;48.342;10.096;2023-11-19T15:08:51;3.30;;;1.00;;
1380;SDS011;684;48.342;10.096;2023-11-19T15:11:18;3.53;;;1.50;;
1380;SDS011;684;48.342;10.096;2023-11-19T15:13:44;3.60;;;1.10;;
1380;SDS011;684;48.342;10.096;2023-11-19T15:16:11;3.20;;;1.20;;
1380;SDS011;684;48.342;10.096;2023-11-19T15:18:39;3.97;;;1.40;;
1380;SDS011;684;48.342;10.096;2023-11-19T15:21:06;4.13;;;1.63;;
1380;SDS011;684;48.342;10.096;2023-11-19T15:23:34;4.07;;;1.63;;
1380;SDS011;684;48.342;10.096;2023-11-19T15:26:03;3.30;;;1.00;;
1380;SDS011;684;48.342;10.096;2023-11-19T15:28:31;3.57;;;0.80;;
1380;SDS011;684;48.342;10.096;2023-11-19T15:30:58;4.60;;;1.43;;